Time;durP1;ratioP1;P1;durP2;ratioP2;P2;SDS_P1;SDS_P2;PMS_P1;PMS_P2;Temp;Humidity;BMP_temperature;BMP_pressure;BME280_temperature;BME280_humidity;BME280_pressure;Samples;Min_cycle;Max_cycle;Signal;HPM_P1;HPM_P2
2021/12/07 00:01:24;;;;;;;21.25;13.45;;;1.60;99.90;;;;;;4989513;28;20469;-89
2021/12/07 00:03:50;;;;;;;22.98;11.95;;;1.60;99.90;;;;;;4955300;28;20050;-89
2021/12/07 00:06:16;;;;;;;23.52;13.23;;;2.60;99.90;;;;;;4990337;28;20690;-89
2021/12/07 00:08:42;;;;;;;23.80;13.20;;;1.50;99.90;;;;;;4957529;28;20046;-89
2021/12/07 00:11:09;;;;;;;23.42;13.15;;;1.40;99.90;;;;;;4973076;28;20039;-89
2021/12/07 00:13:38;;;;;;;26.20;13.48;;;1.30;99.90;;;;;;4974977;28;20086;-89
2021/12/07 00:16:07;;;;;;;22.50;13.07;;;1.30;99.90;;;;;;4989617;28;20046;-89
2021/12/07 00:18:33;;;;;;;26.27;13.77;;;1.50;99.90;;;;;;4990909;28;20062;-89
2021/12/07 00:20:59;;;;;;;24.20;13.68;;;2.50;99.90;;;;;;4974789;28;20047;-89
2021/12/07 00:23:25;;;;;;;23.95;13.05;;;1.20;99.90;;;;;;4975631;28;20038;-87
2021/12/07 00:25:51;;;;;;;24.85;14.18;;;1.10;99.90;;;;;;4973282;28;20050;-88
2021/12/07 00:28:19;;;;;;;25.45;13.73;;;1.00;99.90;;;;;;4990955;28;20108;-89
2021/12/07 00:30:46;;;;;;;29.25;14.77;;;2.40;99.90;;;;;;4974004;28;20064;-89
2021/12/07 00:33:29;;;;;;;27.33;14.73;;;0.90;99.90;;;;;;4991022;28;20034;-89
2021/12/07 00:35:55;;;;;;;25.10;14.48;;;1.90;99.90;;;;;;4979576;28;20050;-88
2021/12/07 00:38:24;;;;;;;28.48;14.40;;;0.80;99.90;;;;;;4990005;28;20053;-89
2021/12/07 00:40:51;;;;;;;27.85;13.98;;;2.00;99.90;;;;;;4973632;28;20514;-88
2021/12/07 00:43:17;;;;;;;26.35;14.85;;;0.70;99.90;;;;;;4959578;28;20059;-88
2021/12/07 00:45:45;;;;;;;27.15;14.95;;;0.90;99.90;;;;;;4975469;28;20073;-89
2021/12/07 00:48:13;;;;;;;26.70;14.32;;;0.60;99.90;;;;;;4992677;28;20038;-88
2021/12/07 00:50:41;;;;;;;28.52;15.25;;;0.60;99.90;;;;;;4990256;28;20046;-88
2021/12/07 00:53:07;;;;;;;27.27;14.82;;;1.90;99.90;;;;;;4978799;28;20551;-88
2021/12/07 00:55:37;;;;;;;28.95;15.52;;;0.50;99.90;;;;;;4975048;28;20034;-88
2021/12/07 00:58:13;;;;;;;33.92;16.10;;;1.40;99.90;;;;;;4993380;28;20047;-88
2021/12/07 01:00:39;;;;;;;27.05;15.10;;;0.90;99.90;;;;;;4975635;28;20038;-88
2021/12/07 01:03:05;;;;;;;32.45;15.35;;;0.40;99.90;;;;;;4993715;28;20482;-88
2021/12/07 01:05:34;;;;;;;32.63;16.15;;;0.40;99.90;;;;;;4976788;28;20082;-88
2021/12/07 01:26:52;;;;;;;34.53;15.20;;;1.10;99.90;;;;;;4991632;28;20077;-88
2021/12/07 01:29:21;;;;;;;29.98;15.90;;;0.30;99.90;;;;;;4992783;28;20034;-87
2021/12/07 01:34:41;;;;;;;30.40;15.18;;;0.30;99.90;;;;;;4974684;28;20088;-88
2021/12/07 01:45:17;;;;;;;31.98;14.82;;;0.20;99.90;;;;;;4972636;28;20050;-87
2021/12/07 02:01:06;;;;;;;31.23;14.93;;;0.20;99.90;;;;;;4976145;28;20466;-87
2021/12/07 02:03:32;;;;;;;31.17;15.02;;;0.20;99.90;;;;;;4978721;28;20458;-87
2021/12/07 02:05:58;;;;;;;29.65;15.27;;;1.20;99.90;;;;;;4973127;28;20649;-88
2021/12/07 02:08:24;;;;;;;28.77;13.82;;;0.20;99.90;;;;;;4958764;28;20129;-87
2021/12/07 02:10:53;;;;;;;31.67;15.35;;;0.20;99.90;;;;;;4972626;28;20113;-87
2021/12/07 02:14:03;;;;;;;31.38;15.38;;;1.50;99.90;;;;;;4988460;28;20506;-88
2021/12/07 02:16:07;;;;;;;30.98;15.15;;;0.20;99.90;;;;;;4989074;28;20423;-88
2021/12/07 02:18:33;;;;;;;29.17;14.90;;;0.20;99.90;;;;;;4990258;28;20038;-88
2021/12/07 02:21:24;;;;;;;29.92;14.52;;;0.50;99.90;;;;;;4958340;28;20041;-88
2021/12/07 02:23:50;;;;;;;32.83;15.45;;;0.20;99.90;;;;;;4989015;28;20174;-88
2021/12/07 02:26:16;;;;;;;31.50;15.38;;;1.00;99.90;;;;;;4973008;28;20085;-88
2021/12/07 02:28:42;;;;;;;33.38;15.43;;;0.20;99.90;;;;;;4957233;28;20582;-87
2021/12/07 02:31:09;;;;;;;31.73;15.80;;;0.20;99.90;;;;;;4973630;28;20034;-88
2021/12/07 02:33:36;;;;;;;33.47;16.10;;;1.10;99.90;;;;;;4973982;28;20503;-87
2021/12/07 02:36:02;;;;;;;34.17;16.63;;;0.20;99.90;;;;;;4973039;28;20066;-88
2021/12/07 02:38:28;;;;;;;33.17;15.98;;;0.20;99.90;;;;;;4973571;28;20683;-88
2021/12/07 02:40:54;;;;;;;35.97;15.98;;;0.20;99.90;;;;;;4988728;28;20209;-87
2021/12/07 02:43:20;;;;;;;30.60;16.20;;;1.50;99.90;;;;;;4973057;28;20085;-88
2021/12/07 02:45:46;;;;;;;29.60;15.55;;;1.10;99.90;;;;;;4972851;28;20113;-88
2021/12/07 02:48:12;;;;;;;27.33;14.45;;;1.70;99.90;;;;;;4973149;28;20042;-88
2021/12/07 02:50:37;;;;;;;31.80;14.32;;;0.20;99.90;;;;;;4972320;28;20038;-88
2021/12/07 02:53:04;;;;;;;32.13;15.45;;;0.50;99.90;;;;;;4973172;28;20042;-88
2021/12/07 02:55:32;;;;;;;29.33;14.55;;;0.20;99.90;;;;;;4972975;28;20034;-88
2021/12/07 02:57:58;;;;;;;28.80;14.90;;;0.20;99.90;;;;;;4989532;28;20105;-88
2021/12/07 03:00:30;;;;;;;28.65;14.57;;;0.20;99.90;;;;;;4961405;28;20187;-88
2021/12/07 03:03:06;;;;;;;30.67;15.85;;;0.20;99.90;;;;;;4982345;28;20074;-88
2021/12/07 03:05:47;;;;;;;31.27;15.65;;;0.20;99.90;;;;;;4956989;28;20048;-89
2021/12/07 03:27:48;;;;;;;32.45;17.55;;;0.30;99.90;;;;;;4974438;28;20704;-89
2021/12/07 03:30:14;;;;;;;37.42;19.15;;;0.30;99.90;;;;;;4970871;28;20046;-89
2021/12/07 03:32:40;;;;;;;33.85;17.20;;;0.30;99.90;;;;;;4971579;28;20115;-89
2021/12/07 03:35:06;;;;;;;37.88;19.33;;;0.30;99.90;;;;;;4970204;28;20607;-90
2021/12/07 03:37:32;;;;;;;36.85;18.48;;;0.30;99.90;;;;;;4968671;28;20570;-89
2021/12/07 03:39:58;;;;;;;35.78;18.27;;;0.40;99.90;;;;;;4971939;28;20065;-89
2021/12/07 03:42:23;;;;;;;38.80;19.70;;;0.40;99.90;;;;;;4958047;28;20042;-88
2021/12/07 03:44:49;;;;;;;37.95;19.10;;;0.40;99.90;;;;;;4971975;28;20072;-89
2021/12/07 03:47:15;;;;;;;35.65;18.42;;;1.00;99.90;;;;;;4971746;28;20038;-90
2021/12/07 03:49:40;;;;;;;51.08;20.27;;;0.40;99.90;;;;;;4954276;28;20033;-90
2021/12/07 03:52:07;;;;;;;39.65;19.08;;;1.70;99.90;;;;;;4967674;28;20053;-89
2021/12/07 03:54:32;;;;;;;41.63;20.20;;;0.40;99.90;;;;;;4971175;28;20391;-90
2021/12/07 03:56:58;;;;;;;40.03;19.92;;;0.40;99.90;;;;;;4970239;28;20049;-89
2021/12/07 03:59:24;;;;;;;38.00;18.90;;;0.40;99.90;;;;;;4954883;28;20057;-89
2021/12/07 04:01:51;;;;;;;43.20;19.88;;;0.50;99.90;;;;;;4988563;28;20073;-89
2021/12/07 04:04:17;;;;;;;38.00;18.70;;;0.40;99.90;;;;;;4987260;28;20034;-89
2021/12/07 04:06:43;;;;;;;38.10;19.27;;;1.20;99.90;;;;;;4972006;28;20074;-88
2021/12/07 04:09:09;;;;;;;37.67;18.30;;;0.40;99.90;;;;;;4971309;28;20047;-89
2021/12/07 04:11:35;;;;;;;45.20;21.05;;;0.60;99.90;;;;;;4971029;28;20039;-88
2021/12/07 04:14:00;;;;;;;40.75;19.02;;;0.40;99.90;;;;;;4956485;28;20037;-89
2021/12/07 04:16:26;;;;;;;42.65;20.52;;;0.40;99.90;;;;;;4972738;28;20459;-89
2021/12/07 04:18:52;;;;;;;41.80;20.48;;;0.40;99.90;;;;;;4991840;28;20499;-88
2021/12/07 04:21:18;;;;;;;42.00;20.52;;;0.40;99.90;;;;;;4974767;28;20098;-89
2021/12/07 04:23:44;;;;;;;39.08;19.52;;;0.40;99.90;;;;;;4958889;28;20042;-89
2021/12/07 04:26:12;;;;;;;38.90;18.77;;;0.40;99.90;;;;;;4990051;28;20509;-89
2021/12/07 04:28:39;;;;;;;41.13;20.65;;;0.40;99.90;;;;;;4991500;28;20065;-89
2021/12/07 04:31:05;;;;;;;42.88;20.55;;;0.30;99.90;;;;;;4990644;28;20539;-88
2021/12/07 04:33:32;;;;;;;43.80;19.98;;;0.30;99.90;;;;;;4974952;28;20042;-89
2021/12/07 04:35:58;;;;;;;42.83;21.27;;;0.30;99.90;;;;;;4972802;28;20077;-88
2021/12/07 04:38:24;;;;;;;41.53;19.83;;;1.50;99.90;;;;;;4975363;28;20491;-88
2021/12/07 04:40:50;;;;;;;49.05;22.00;;;0.20;99.90;;;;;;4974006;28;20073;-88
2021/12/07 04:43:15;;;;;;;45.95;19.67;;;1.30;99.90;;;;;;4991693;28;20550;-88
2021/12/07 04:58:34;;;;;;;48.70;20.48;;;0.20;99.90;;;;;;4963793;28;20162;-87
2021/12/07 05:01:06;;;;;;;47.08;20.60;;;0.20;99.90;;;;;;4989316;28;20145;-88
2021/12/07 05:03:32;;;;;;;39.25;19.00;;;1.30;99.90;;;;;;4974682;28;20042;-88
2021/12/07 05:05:57;;;;;;;42.05;18.50;;;0.20;99.90;;;;;;4957645;28;20064;-88
2021/12/07 05:08:39;;;;;;;43.95;19.48;;;0.20;99.90;;;;;;4991390;28;20082;-88
2021/12/07 05:13:39;;;;;;;40.05;18.48;;;0.80;99.90;;;;;;4989846;28;20130;-88
2021/12/07 05:24:09;;;;;;;46.40;19.13;;;0.20;99.90;;;;;;4977475;28;20057;-87
2021/12/07 05:37:46;;;;;;;43.25;19.73;;;0.20;99.90;;;;;;4990715;28;20534;-88
2021/12/07 05:40:19;;;;;;;44.17;18.55;;;0.20;99.90;;;;;;4980825;28;20034;-88
2021/12/07 05:42:45;;;;;;;;;;;0.20;99.90;;;;;;4990656;28;20030;-88
2021/12/07 05:45:15;;;;;;;47.75;19.27;;;0.30;99.90;;;;;;4973641;28;20382;-87
2021/12/07 05:47:41;;;;;;;45.40;19.40;;;0.90;99.90;;;;;;4990287;28;20050;-88
2021/12/07 05:50:08;;;;;;;47.40;20.13;;;0.90;99.90;;;;;;4974639;28;20045;-88
2021/12/07 05:52:35;;;;;;;41.75;17.58;;;0.20;99.90;;;;;;4990135;28;20073;-88
2021/12/07 05:55:02;;;;;;;45.92;19.30;;;0.30;99.90;;;;;;4990243;28;20104;-88
2021/12/07 05:57:27;;;;;;;44.58;19.58;;;0.30;99.90;;;;;;4973860;28;20097;-87
2021/12/07 05:59:53;;;;;;;41.53;18.00;;;0.20;99.90;;;;;;4973528;28;20440;-87
2021/12/07 06:02:19;;;;;;;43.08;18.45;;;1.30;99.90;;;;;;4988771;28;20046;-88
2021/12/07 06:04:45;;;;;;;43.88;18.63;;;0.40;99.90;;;;;;4973764;28;20041;-87
2021/12/07 06:07:10;;;;;;;42.10;18.67;;;0.30;99.90;;;;;;4958344;28;20042;-88
2021/12/07 06:09:37;;;;;;;40.15;16.02;;;0.20;99.90;;;;;;4973129;28;20038;-87
2021/12/07 06:12:04;;;;;;;42.28;18.48;;;0.90;99.90;;;;;;4971299;28;20050;-87
2021/12/07 06:14:36;;;;;;;42.08;17.33;;;0.30;99.90;;;;;;4971799;28;20034;-87
2021/12/07 06:17:01;;;;;;;36.92;17.17;;;0.20;99.90;;;;;;4973865;28;20519;-88
2021/12/07 06:19:27;;;;;;;40.60;17.25;;;0.30;99.90;;;;;;4957137;28;20126;-87
2021/12/07 06:21:54;;;;;;;43.80;17.50;;;1.40;99.90;;;;;;4957540;28;20038;-88
2021/12/07 06:24:19;;;;;;;42.40;19.08;;;1.20;99.90;;;;;;4973225;28;20046;-86
2021/12/07 06:26:45;;;;;;;38.15;16.60;;;0.20;99.90;;;;;;4981846;28;20038;-87
2021/12/07 06:29:11;;;;;;;38.08;16.88;;;0.30;99.90;;;;;;4973881;28;20045;-87
2021/12/07 06:31:37;;;;;;;41.80;17.42;;;1.10;99.90;;;;;;4989713;28;20066;-88
2021/12/07 06:34:03;;;;;;;33.83;15.23;;;1.50;99.90;;;;;;4973320;28;20185;-87
2021/12/07 06:36:29;;;;;;;41.72;17.55;;;0.40;99.90;;;;;;4973714;28;20049;-87
2021/12/07 06:38:54;;;;;;;39.00;17.63;;;0.30;99.90;;;;;;4989161;28;20061;-88
2021/12/07 06:41:20;;;;;;;39.13;15.38;;;0.40;99.90;;;;;;4990611;28;20042;-88
2021/12/07 06:43:46;;;;;;;39.85;17.67;;;0.40;99.90;;;;;;4972625;28;20198;-87
2021/12/07 06:46:13;;;;;;;40.45;16.92;;;1.70;99.90;;;;;;4973044;28;20046;-87
2021/12/07 06:48:39;;;;;;;39.10;16.27;;;0.40;99.90;;;;;;4970446;28;20039;-88
2021/12/07 06:51:06;;;;;;;42.58;17.23;;;0.40;99.90;;;;;;4972719;28;20041;-87
2021/12/07 06:53:35;;;;;;;43.53;17.67;;;0.40;99.90;;;;;;4983410;28;20031;-88
2021/12/07 06:56:06;;;;;;;41.45;17.17;;;1.50;99.90;;;;;;4972906;28;20042;-87
2021/12/07 06:58:33;;;;;;;42.30;16.88;;;0.40;99.90;;;;;;4971082;28;20038;-87
2021/12/07 07:00:59;;;;;;;39.45;16.38;;;1.50;99.90;;;;;;4972041;28;20101;-87
2021/12/07 07:03:25;;;;;;;48.92;17.83;;;1.00;99.90;;;;;;4972418;28;20039;-87
2021/12/07 07:05:51;;;;;;;36.28;15.90;;;0.50;99.90;;;;;;4955049;28;20113;-87
2021/12/07 07:08:17;;;;;;;36.80;16.10;;;0.50;99.90;;;;;;4972322;28;20065;-88
2021/12/07 07:10:42;;;;;;;38.15;15.43;;;0.50;99.90;;;;;;4987619;28;20471;-88
2021/12/07 07:13:08;;;;;;;38.10;15.90;;;0.50;99.90;;;;;;4971490;28;20093;-87
2021/12/07 07:15:34;;;;;;;38.15;14.70;;;0.50;99.90;;;;;;4971601;28;20065;-87
2021/12/07 07:18:00;;;;;;;36.45;15.55;;;0.50;99.90;;;;;;4972139;28;20118;-87
2021/12/07 07:20:27;;;;;;;34.22;16.25;;;0.50;99.90;;;;;;4956062;28;20077;-87
2021/12/07 07:22:53;;;;;;;33.58;14.82;;;0.50;99.90;;;;;;4956788;28;20443;-87
2021/12/07 07:25:19;;;;;;;40.35;15.88;;;0.50;99.90;;;;;;4971527;28;20034;-88
2021/12/07 07:27:46;;;;;;;37.30;15.75;;;0.50;99.90;;;;;;4955875;28;20034;-88
2021/12/07 07:30:14;;;;;;;43.40;18.05;;;0.50;99.90;;;;;;4955572;28;20034;-87
2021/12/07 07:32:40;;;;;;;47.78;17.02;;;0.40;99.90;;;;;;4972685;28;20041;-88
2021/12/07 07:35:08;;;;;;;35.80;16.00;;;0.50;99.90;;;;;;4988311;28;20398;-87
2021/12/07 07:37:34;;;;;;;32.80;14.35;;;0.50;99.90;;;;;;4985312;28;20810;-87
2021/12/07 07:39:59;;;;;;;32.78;15.38;;;0.50;99.90;;;;;;4971699;28;20041;-87
2021/12/07 07:42:25;;;;;;;38.58;15.85;;;1.30;99.90;;;;;;4972173;28;20169;-88
2021/12/07 07:44:51;;;;;;;35.72;14.85;;;1.70;99.90;;;;;;4971918;28;20653;-91
2021/12/07 07:47:17;;;;;;;33.58;14.63;;;0.60;99.90;;;;;;4973111;28;20046;-90
2021/12/07 07:49:42;;;;;;;35.95;16.27;;;1.20;99.90;;;;;;4963036;28;20041;-90
2021/12/07 07:52:08;;;;;;;33.55;14.52;;;0.60;99.90;;;;;;4929352;28;20042;-90
2021/12/07 07:54:34;;;;;;;36.33;14.98;;;1.70;99.90;;;;;;4980298;28;20101;-90
2021/12/07 07:56:59;;;;;;;34.13;14.68;;;0.60;99.90;;;;;;4970193;28;20069;-89
2021/12/07 07:59:25;;;;;;;41.65;15.60;;;1.30;99.90;;;;;;4969473;28;20070;-91
2021/12/07 08:01:51;;;;;;;35.70;14.52;;;2.30;99.90;;;;;;4971251;28;20038;-90
2021/12/07 08:04:17;;;;;;;28.83;14.00;;;0.90;99.90;;;;;;4976270;28;20135;-88
2021/12/07 08:06:42;;;;;;;29.38;13.82;;;2.20;99.90;;;;;;4990274;28;20660;-88
2021/12/07 08:09:08;;;;;;;32.45;14.02;;;1.00;99.90;;;;;;4990843;28;20026;-89
2021/12/07 08:11:34;;;;;;;29.92;14.13;;;2.20;99.90;;;;;;4981204;28;20042;-89
2021/12/07 08:14:00;;;;;;;31.58;14.10;;;0.90;99.90;;;;;;4969183;28;20641;-92
2021/12/07 08:16:29;;;;;;;31.77;13.95;;;2.40;99.90;;;;;;4980162;28;20053;-88
2021/12/07 08:18:55;;;;;;;31.65;13.18;;;1.70;99.90;;;;;;4964894;28;20133;-89
2021/12/07 08:21:21;;;;;;;29.98;13.13;;;0.90;99.90;;;;;;4961434;28;20034;-89
2021/12/07 08:23:47;;;;;;;29.55;13.35;;;2.10;99.90;;;;;;4952242;28;20058;-88
2021/12/07 08:26:15;;;;;;;32.60;13.75;;;2.10;99.90;;;;;;4976488;28;20050;-92
2021/12/07 08:28:42;;;;;;;29.65;13.35;;;0.90;99.90;;;;;;4978928;28;20787;-90
2021/12/07 08:31:08;;;;;;;30.70;13.75;;;0.90;99.90;;;;;;4956384;28;20045;-92
2021/12/07 08:33:34;;;;;;;28.52;12.77;;;0.90;99.90;;;;;;4974105;28;20039;-93
2021/12/07 08:36:01;;;;;;;30.88;12.65;;;2.40;99.90;;;;;;4973038;28;20113;-92
2021/12/07 08:38:28;;;;;;;30.95;13.73;;;1.60;99.90;;;;;;4964820;28;20046;-95
2021/12/07 08:40:55;;;;;;;31.25;12.80;;;1.10;99.90;;;;;;4962879;28;20125;-94
2021/12/07 08:43:24;;;;;;;29.48;13.05;;;1.10;99.90;;;;;;4970448;28;20062;-94
2021/12/07 08:45:52;;;;;;;27.17;12.60;;;2.00;99.90;;;;;;4965464;28;20069;-91
2021/12/07 08:48:18;;;;;;;30.67;12.68;;;2.50;99.90;;;;;;4947291;28;20129;-89
2021/12/07 08:50:45;;;;;;;26.25;12.98;;;1.30;99.90;;;;;;4963376;28;20046;-90
2021/12/07 08:53:14;;;;;;;32.58;13.23;;;2.40;99.90;;;;;;4963467;28;20045;-90
2021/12/07 09:01:18;;;;;;;21.23;9.57;;;3.70;99.90;;;;;;4969368;28;20073;-92
2021/12/07 09:03:45;;;;;;;15.13;8.85;;;3.50;99.90;;;;;;4969081;28;20042;-93
2021/12/07 09:06:12;;;;;;;24.92;10.27;;;3.80;99.90;;;;;;4984775;28;20135;-93
2021/12/07 09:08:39;;;;;;;22.80;9.32;;;4.10;99.90;;;;;;4983022;28;20796;-92
2021/12/07 09:11:09;;;;;;;24.00;9.18;;;5.00;99.90;;;;;;4960390;28;20042;-96
2021/12/07 09:13:39;;;;;;;15.20;8.00;;;4.90;99.90;;;;;;4966764;28;20053;-93
2021/12/07 09:16:05;;;;;;;16.75;8.63;;;6.20;99.90;;;;;;4971014;28;20050;-93
2021/12/07 09:18:31;;;;;;;16.63;8.73;;;4.80;99.90;;;;;;4970800;28;20038;-93
2021/12/07 09:21:04;;;;;;;19.63;8.45;;;4.20;99.90;;;;;;4971000;28;20568;-94
2021/12/07 09:23:31;;;;;;;18.30;8.45;;;5.40;99.90;;;;;;4952225;28;20088;-86
2021/12/07 09:32:25;;;;;;;14.82;8.88;;;4.60;99.90;;;;;;5011663;23;20065;-95
2021/12/07 09:35:02;;;;;;;19.13;7.93;;;5.30;99.90;;;;;;5002994;28;21510;-91
2021/12/07 09:37:28;;;;;;;15.10;8.50;;;4.40;99.90;;;;;;5012734;28;20049;-91
2021/12/07 09:39:54;;;;;;;14.80;8.52;;;4.60;99.90;;;;;;4996610;28;20046;-91
2021/12/07 09:46:21;;;;;;;18.23;8.45;;;4.90;99.90;;;;;;4995874;28;20046;-94
2021/12/07 09:49:12;;;;;;;20.73;8.93;;;3.60;99.90;;;;;;4971444;28;20086;-96
2021/12/07 09:57:43;;;;;;;18.23;8.90;;;3.50;99.90;;;;;;4968383;28;20054;-95
2021/12/07 10:00:17;;;;;;;23.70;7.75;;;3.20;99.90;;;;;;4966645;28;20157;-92
2021/12/07 10:02:43;;;;;;;17.75;7.75;;;2.40;99.90;;;;;;4983901;28;20388;-92
2021/12/07 10:05:09;;;;;;;15.40;7.40;;;4.20;99.90;;;;;;4949804;28;20031;-91
2021/12/07 10:07:37;;;;;;;20.75;8.32;;;3.10;99.90;;;;;;4965207;28;20090;-94
2021/12/07 10:17:24;;;;;;;24.02;8.52;;;2.00;99.90;;;;;;4950752;29;20129;-96
2021/12/07 10:19:50;;;;;;;21.02;7.40;;;4.50;99.90;;;;;;4963729;28;20093;-92
2021/12/07 10:22:21;;;;;;;16.08;7.90;;;3.20;99.90;;;;;;4952946;28;20045;-94
2021/12/07 10:24:54;;;;;;;20.23;8.98;;;3.10;99.90;;;;;;4969076;28;20481;-92
2021/12/07 10:27:39;;;;;;;23.45;9.15;;;3.10;99.90;;;;;;4967419;28;20050;-90
2021/12/07 10:30:09;;;;;;;30.27;9.30;;;3.70;99.90;;;;;;4982224;28;20125;-92
2021/12/07 10:32:39;;;;;;;21.92;8.10;;;3.10;99.90;;;;;;4967997;28;20198;-91
2021/12/07 10:35:29;;;;;;;17.10;7.22;;;3.60;99.90;;;;;;4970066;28;20407;-93
2021/12/07 10:38:34;;;;;;;15.10;8.15;;;3.60;99.90;;;;;;4954203;28;20133;-94
2021/12/07 10:41:07;;;;;;;23.52;7.63;;;3.00;99.90;;;;;;4934615;28;20198;-85
2021/12/07 10:43:49;;;;;;;18.63;7.53;;;4.00;99.90;;;;;;4959529;28;20118;-86
2021/12/07 10:46:39;;;;;;;14.90;7.22;;;3.10;99.90;;;;;;4957801;28;20102;-89
2021/12/07 10:49:18;;;;;;;16.98;8.10;;;3.20;99.90;;;;;;4959270;28;20407;-87
2021/12/07 10:52:12;;;;;;;14.52;8.68;;;2.60;99.90;;;;;;4957346;28;20046;-89
2021/12/07 10:54:43;;;;;;;22.80;7.90;;;3.30;99.90;;;;;;4942424;28;20054;-89
2021/12/07 10:57:13;;;;;;;15.70;7.80;;;3.30;99.90;;;;;;4948645;28;20043;-91
2021/12/07 10:59:48;;;;;;;18.00;8.02;;;3.40;99.90;;;;;;4948419;28;20053;-89
2021/12/07 11:02:16;;;;;;;19.85;8.63;;;3.70;99.90;;;;;;4960030;28;20133;-90
2021/12/07 11:04:43;;;;;;;22.80;8.55;;;4.30;99.90;;;;;;4943695;28;20046;-87
2021/12/07 11:07:18;;;;;;;17.23;6.97;;;3.60;99.90;;;;;;4940881;28;20528;-86
2021/12/07 11:12:40;;;;;;;23.60;7.43;;;3.80;99.90;;;;;;4959654;28;20049;-85
2021/12/07 11:15:13;;;;;;;18.77;7.43;;;3.80;99.90;;;;;;4944965;28;20038;-85
2021/12/07 11:17:40;;;;;;;21.98;7.93;;;3.70;99.90;;;;;;4944282;28;20046;-85
2021/12/07 11:20:08;;;;;;;15.93;7.50;;;3.60;99.90;;;;;;4943811;28;20034;-85
2021/12/07 11:22:37;;;;;;;20.20;8.57;;;3.60;99.90;;;;;;4959291;28;20043;-85
2021/12/07 11:25:04;;;;;;;23.30;9.02;;;3.80;99.90;;;;;;4943561;28;20050;-85
2021/12/07 11:30:29;;;;;;;16.80;7.20;;;3.70;99.90;;;;;;4919879;28;20515;-88
2021/12/07 11:32:57;;;;;;;18.13;7.60;;;3.70;99.90;;;;;;4960664;28;20066;-89
2021/12/07 11:35:34;;;;;;;15.50;7.30;;;4.60;99.90;;;;;;4959585;28;20445;-89
2021/12/07 11:38:05;;;;;;;16.67;7.70;;;3.70;99.90;;;;;;4944355;28;20392;-89
2021/12/07 11:40:36;;;;;;;15.85;7.20;;;5.00;99.90;;;;;;4977300;28;20049;-88
2021/12/07 11:43:15;;;;;;;20.38;7.93;;;3.80;99.90;;;;;;4958453;28;20046;-89
2021/12/07 11:45:44;;;;;;;16.65;7.07;;;4.30;99.90;;;;;;4938994;28;20047;-89
2021/12/07 11:48:10;;;;;;;18.83;7.25;;;3.80;99.90;;;;;;4956093;28;20039;-89
2021/12/07 11:50:50;;;;;;;19.75;7.57;;;4.30;99.90;;;;;;4939970;28;20133;-89
2021/12/07 11:53:20;;;;;;;18.75;7.63;;;3.80;99.90;;;;;;4942718;28;20039;-89
2021/12/07 11:55:51;;;;;;;17.20;6.78;;;3.90;99.90;;;;;;4939874;28;20059;-89
2021/12/07 11:58:17;;;;;;;24.55;8.00;;;3.80;99.90;;;;;;4941831;28;20118;-89
2021/12/07 12:00:46;;;;;;;23.13;7.80;;;3.70;99.90;;;;;;4942012;28;20509;-90
2021/12/07 12:03:14;;;;;;;15.52;7.65;;;4.90;99.90;;;;;;4941558;28;20046;-90
2021/12/07 12:05:43;;;;;;;18.90;8.40;;;3.90;99.90;;;;;;4942603;28;20051;-90
2021/12/07 12:08:09;;;;;;;17.25;8.25;;;4.20;99.90;;;;;;4974208;28;20039;-90
2021/12/07 12:10:38;;;;;;;19.80;8.00;;;4.00;99.90;;;;;;4944551;28;20049;-90
2021/12/07 12:13:15;;;;;;;16.58;7.53;;;3.90;99.90;;;;;;4941314;28;20046;-90
2021/12/07 12:15:51;;;;;;;13.23;7.40;;;4.30;99.90;;;;;;4956697;28;20039;-89
2021/12/07 12:18:34;;;;;;;14.73;8.00;;;4.00;99.90;;;;;;4943368;28;21699;-89
2021/12/07 12:21:12;;;;;;;16.70;8.30;;;3.90;99.90;;;;;;4956270;28;20046;-90
2021/12/07 12:24:04;;;;;;;17.98;8.15;;;3.90;99.90;;;;;;4937757;28;20093;-88
2021/12/07 12:26:30;;;;;;;23.38;8.57;;;3.00;99.90;;;;;;4954279;28;20909;-88
2021/12/07 12:28:57;;;;;;;18.98;8.82;;;4.10;99.90;;;;;;4954343;28;20039;-89
2021/12/07 12:31:44;;;;;;;13.57;7.85;;;5.20;99.90;;;;;;4969754;28;20038;-88
2021/12/07 12:34:28;;;;;;;15.10;7.93;;;4.50;99.90;;;;;;4938672;28;20039;-88
2021/12/07 12:37:04;;;;;;;15.65;9.30;;;4.30;99.90;;;;;;4956038;28;20053;-88
2021/12/07 12:39:52;;;;;;;17.08;8.55;;;4.50;99.90;;;;;;4961082;28;20066;-90
2021/12/07 12:42:45;;;;;;;13.75;7.40;;;4.60;99.90;;;;;;4950631;28;20039;-92
2021/12/07 12:45:35;;;;;;;14.38;6.97;;;4.60;99.90;;;;;;4955817;28;20045;-88
2021/12/07 12:48:06;;;;;;;12.07;6.60;;;4.70;99.90;;;;;;4961203;28;20043;-94
2021/12/07 12:50:44;;;;;;;20.45;7.72;;;4.70;99.90;;;;;;4967271;28;20038;-95
2021/12/07 12:53:34;;;;;;;28.02;7.97;;;4.70;99.90;;;;;;4950854;28;20583;-92
2021/12/07 12:56:07;;;;;;;14.38;7.43;;;4.70;99.90;;;;;;4943629;28;20061;-87
2021/12/07 12:58:37;;;;;;;17.30;8.00;;;4.60;99.90;;;;;;4961800;28;20057;-89
2021/12/07 13:01:12;;;;;;;14.63;7.15;;;4.50;99.90;;;;;;4959718;28;20046;-88
2021/12/07 13:03:43;;;;;;;20.67;7.72;;;4.50;99.90;;;;;;4959794;28;20046;-92
2021/12/07 13:06:16;;;;;;;18.23;7.53;;;4.50;99.90;;;;;;4966929;28;20051;-90
2021/12/07 13:09:09;;;;;;;14.57;7.15;;;4.80;99.90;;;;;;4961087;28;20047;-91
2021/12/07 13:11:43;;;;;;;16.80;7.35;;;4.50;99.90;;;;;;4962619;28;20043;-90
2021/12/07 13:14:21;;;;;;;19.30;7.00;;;4.50;99.90;;;;;;4969694;28;20039;-90
2021/12/07 13:16:57;;;;;;;18.92;7.22;;;4.60;99.90;;;;;;4963385;28;20447;-90
2021/12/07 13:19:23;;;;;;;20.45;7.47;;;4.60;99.90;;;;;;4979582;28;20396;-91
2021/12/07 13:21:52;;;;;;;14.80;7.72;;;4.60;99.90;;;;;;4944143;28;20609;-85
2021/12/07 13:24:34;;;;;;;18.38;7.72;;;4.60;99.90;;;;;;4960880;28;20042;-89
2021/12/07 13:27:09;;;;;;;17.30;6.45;;;4.60;99.90;;;;;;4962433;28;20117;-88
2021/12/07 13:29:37;;;;;;;14.82;7.28;;;4.70;99.90;;;;;;4946505;28;20310;-92
2021/12/07 13:32:06;;;;;;;16.00;7.18;;;4.90;99.90;;;;;;4947316;28;20053;-93
2021/12/07 13:34:34;;;;;;;16.30;7.13;;;4.60;99.90;;;;;;4949575;28;20034;-93
2021/12/07 13:37:10;;;;;;;20.20;7.90;;;4.60;99.90;;;;;;4962614;28;20081;-93
2021/12/07 13:39:48;;;;;;;20.35;8.95;;;4.50;99.90;;;;;;4941051;28;20227;-92
2021/12/07 13:42:16;;;;;;;23.83;8.57;;;4.50;99.90;;;;;;4956055;28;20131;-88
2021/12/07 13:45:08;;;;;;;17.13;8.20;;;4.50;99.90;;;;;;4948047;28;20094;-90
2021/12/07 13:47:47;;;;;;;16.17;8.73;;;4.40;99.90;;;;;;4941068;28;20047;-90
2021/12/07 13:50:17;;;;;;;14.30;8.63;;;4.40;99.90;;;;;;4940886;28;20536;-89
2021/12/07 13:52:49;;;;;;;29.75;9.90;;;4.70;99.90;;;;;;4942837;28;20038;-92
2021/12/07 13:55:19;;;;;;;20.70;9.60;;;4.30;99.90;;;;;;4975650;28;20051;-90
2021/12/07 13:57:47;;;;;;;23.02;9.15;;;4.20;99.90;;;;;;4942867;28;20102;-89
2021/12/07 14:00:20;;;;;;;19.23;9.07;;;4.40;99.90;;;;;;4943589;28;20121;-91
2021/12/07 14:02:54;;;;;;;24.98;10.13;;;4.10;99.90;;;;;;4943828;28;20074;-91
2021/12/07 14:05:29;;;;;;;21.92;9.38;;;4.80;99.90;;;;;;4951647;28;20062;-88
2021/12/07 14:07:58;;;;;;;22.95;10.40;;;4.00;99.90;;;;;;4969023;28;20046;-87
2021/12/07 14:10:29;;;;;;;20.98;10.23;;;4.00;99.90;;;;;;4970203;28;20039;-88
2021/12/07 14:12:56;;;;;;;21.35;10.55;;;4.90;99.90;;;;;;4954281;28;20049;-87
2021/12/07 14:15:30;;;;;;;26.70;10.77;;;3.90;99.90;;;;;;4962225;28;20102;-87
2021/12/07 14:18:01;;;;;;;20.85;9.93;;;3.90;99.90;;;;;;4956610;28;20059;-87
2021/12/07 14:20:42;;;;;;;18.13;9.38;;;3.90;99.90;;;;;;4970858;28;20042;-87
2021/12/07 14:23:20;;;;;;;23.85;9.55;;;3.80;99.90;;;;;;4957741;28;20090;-87
2021/12/07 14:25:52;;;;;;;25.48;9.27;;;3.80;99.90;;;;;;4978822;28;20054;-87
2021/12/07 14:28:35;;;;;;;21.20;9.45;;;3.80;99.90;;;;;;4945769;28;20427;-87
2021/12/07 14:31:14;;;;;;;22.52;10.75;;;3.70;99.90;;;;;;4971416;28;20046;-88
2021/12/07 14:33:51;;;;;;;26.83;11.30;;;3.70;99.90;;;;;;4961154;28;20396;-88
2021/12/07 14:36:21;;;;;;;21.15;9.82;;;3.70;99.90;;;;;;4978642;28;20408;-88
2021/12/07 14:38:52;;;;;;;27.75;11.38;;;3.70;99.90;;;;;;4946724;28;20057;-87
2021/12/07 14:41:21;;;;;;;26.08;11.40;;;3.60;99.90;;;;;;4970923;28;20117;-87
2021/12/07 14:43:47;;;;;;;24.33;10.88;;;3.60;99.90;;;;;;4954123;28;20039;-87
2021/12/07 14:46:16;;;;;;;20.23;10.07;;;3.60;99.90;;;;;;4963411;28;20042;-87
2021/12/07 14:48:45;;;;;;;26.80;10.20;;;4.40;99.90;;;;;;4975259;28;20035;-87
2021/12/07 14:51:17;;;;;;;22.38;11.30;;;3.50;99.90;;;;;;4969290;28;20412;-87
2021/12/07 14:53:47;;;;;;;;;;;3.50;99.90;;;;;;4979635;28;20049;-88
2021/12/07 14:56:15;;;;;;;23.65;9.70;;;3.40;99.90;;;;;;4954621;28;19922;-87
2021/12/07 14:58:43;;;;;;;18.50;10.93;;;4.70;99.90;;;;;;4954475;28;20061;-86
2021/12/07 15:01:15;;;;;;;20.38;10.68;;;3.40;99.90;;;;;;4942500;28;20081;-87
2021/12/07 15:03:45;;;;;;;25.75;12.23;;;3.70;99.90;;;;;;4986564;28;20042;-87
2021/12/07 15:06:13;;;;;;;25.15;12.88;;;3.30;99.90;;;;;;4954185;28;20047;-87